Etusivu
METAR-TAF:

METAR-TAF

Lentoasemat :

Metz-Nancy-Lorraine, Ranska

Leveyspiiri: 48-59N, Pituuspiiri: 006-15E, korkeus merenpinnasta: 264 m

Tämänhetkinen sää

Tämä raportti tehtiin 38 minuuttia sitten, kello 17.00 UTC
Tuuli 12 kn koillisesta
Lämpötila 8°C
Kosteus 27%
Ilmanpaine 1024 hPa
Näkyvyys 10 km tai enemmän
ei pilviä alle 1500 m:ssä eikä cumulonimbus-pilviä

METAR: LFJL 301700Z AUTO 05012KT CAVOK 08/M10 Q1024

Aika: 19:38 (17:38 UTC)


TAF: puuttuu

Säähavainnot ja -ennusteet yli 4000 lentoasemalta (METAR- ja TAF-raportit).

Käytössä olevat sääasemat on merkitty karttaan keltaisilla ja punaisilla pisteillä.

Aseta hiiri pisteen päälle nähdäksesi sääaseman nimen.

Klikkaa sitten nähdäksesi säähavainnot ja -ennusteet.

Kartan vaihtaminen: klikkaa mustalla rastilla varustettuja vihreitä pisteitä, niin voit zoomata sisään; viivalla varustettua vihreää pistettä, niin voit zoomata ulos tai vihreitä nuolia, niin pääset viereisille kartoille.


METAR-TAF: